createdAt,value
2022-10-24T00:00:01.789Z,15.59
2022-10-24T00:05:01.748Z,15.61
2022-10-24T00:10:02.246Z,15.52
2022-10-24T00:15:01.855Z,15.55
2022-10-24T00:20:01.990Z,15.51
2022-10-24T00:25:02.709Z,15.52
2022-10-24T00:30:01.924Z,15.6
2022-10-24T00:35:02.164Z,15.71
2022-10-24T00:40:02.145Z,15.66
2022-10-24T00:45:02.066Z,15.58
2022-10-24T00:50:02.434Z,15.62
2022-10-24T00:55:01.725Z,15.6
2022-10-24T01:00:02.005Z,15.55
2022-10-24T01:05:01.879Z,15.47
2022-10-24T01:10:01.721Z,15.51
2022-10-24T01:15:01.654Z,15.51
2022-10-24T01:20:01.829Z,15.65
2022-10-24T01:25:01.542Z,15.68
2022-10-24T01:30:01.949Z,15.68
2022-10-24T01:35:02.060Z,15.7
2022-10-24T01:40:01.404Z,15.65
2022-10-24T01:45:02.181Z,15.74
2022-10-24T01:50:01.585Z,15.8
2022-10-24T01:55:01.410Z,15.71
2022-10-24T02:00:01.483Z,15.56
2022-10-24T02:05:01.613Z,15.38
2022-10-24T02:10:01.971Z,15.33
2022-10-24T02:15:01.783Z,15.33
2022-10-24T02:20:02.005Z,15.33
2022-10-24T02:25:01.940Z,15.45
2022-10-24T02:30:01.437Z,15.71
2022-10-24T02:35:01.749Z,15.77
2022-10-24T02:40:01.688Z,15.73
2022-10-24T02:45:01.576Z,15.69
2022-10-24T02:50:01.560Z,15.67
2022-10-24T02:55:01.527Z,15.6
2022-10-24T03:00:01.408Z,15.72
2022-10-24T03:05:01.500Z,15.73
2022-10-24T03:10:01.812Z,15.67
2022-10-24T03:15:01.717Z,15.6
2022-10-24T03:20:01.977Z,15.53
2022-10-24T03:25:01.755Z,15.39
2022-10-24T03:30:02.151Z,15.44
2022-10-24T03:35:01.650Z,15.47
2022-10-24T03:40:01.404Z,15.51
2022-10-24T03:45:01.391Z,15.46
2022-10-24T03:50:01.439Z,15.36
2022-10-24T03:55:01.940Z,15.26
2022-10-24T04:00:02.063Z,15.16
2022-10-24T04:05:02.149Z,15.12
2022-10-24T04:10:01.977Z,15.01
2022-10-24T04:15:04.715Z,15
2022-10-24T04:20:02.087Z,14.94
2022-10-24T04:25:01.512Z,14.96
2022-10-24T04:30:01.704Z,15.07
2022-10-24T04:35:01.650Z,14.99
2022-10-24T04:40:02.178Z,15.03
2022-10-24T04:45:01.955Z,15.02
2022-10-24T04:50:01.323Z,15.16
2022-10-24T04:55:01.390Z,15.33
2022-10-24T05:00:01.710Z,15.54
2022-10-24T05:05:02.019Z,15.73
2022-10-24T05:10:01.650Z,15.73
2022-10-24T05:15:02.056Z,15.48
2022-10-24T05:20:02.286Z,15.37
2022-10-24T05:25:01.904Z,15.25
2022-10-24T05:30:02.123Z,15.04
2022-10-24T05:35:02.336Z,15.02
2022-10-24T05:40:02.025Z,14.98
2022-10-24T05:45:04.241Z,15.01
2022-10-24T05:50:01.469Z,14.93
2022-10-24T05:55:09.729Z,14.93
2022-10-24T06:00:02.153Z,14.91
2022-10-24T06:05:01.631Z,14.95
2022-10-24T06:10:01.884Z,15.01
2022-10-24T06:15:02.106Z,15.12
2022-10-24T06:20:01.379Z,15.11
2022-10-24T06:25:01.533Z,15.09
2022-10-24T06:30:01.891Z,15.07
2022-10-24T06:35:01.487Z,15.11
2022-10-24T06:40:01.387Z,15.13
2022-10-24T06:45:01.617Z,15.1
2022-10-24T06:50:01.407Z,15.17
2022-10-24T06:55:01.617Z,15.14
2022-10-24T07:00:01.824Z,15.14
2022-10-24T07:05:02.158Z,15.36
2022-10-24T07:10:01.525Z,15.44
2022-10-24T07:15:01.553Z,15.45
2022-10-24T07:20:01.412Z,15.44
2022-10-24T07:25:02.141Z,15.49
2022-10-24T07:30:05.530Z,15.6
2022-10-24T07:35:01.722Z,15.7
2022-10-24T07:40:01.351Z,15.71
2022-10-24T07:45:01.365Z,15.8
2022-10-24T07:50:01.517Z,15.71
2022-10-24T07:55:01.553Z,15.69
2022-10-24T08:00:02.022Z,15.62
2022-10-24T08:05:01.751Z,15.7
2022-10-24T08:10:01.802Z,15.7
2022-10-24T08:15:02.723Z,15.89
2022-10-24T08:20:01.284Z,15.86
2022-10-24T08:25:01.890Z,15.78
2022-10-24T08:30:02.120Z,15.75
2022-10-24T08:35:01.506Z,15.75
2022-10-24T08:40:02.168Z,16
2022-10-24T08:45:01.721Z,16.14
2022-10-24T08:50:01.987Z,16.14
2022-10-24T08:55:06.337Z,16.29
2022-10-24T09:00:01.278Z,16.37
2022-10-24T09:05:01.905Z,16.18
2022-10-24T09:10:01.965Z,16.27
2022-10-24T09:15:02.205Z,16.46
2022-10-24T09:20:01.705Z,16.63
2022-10-24T09:25:01.827Z,16.57
2022-10-24T09:30:02.146Z,16.89
2022-10-24T09:35:01.347Z,16.91
2022-10-24T09:40:01.762Z,17.08
2022-10-24T09:45:01.853Z,16.99
2022-10-24T09:50:01.667Z,17.19
2022-10-24T09:55:01.808Z,17.22
2022-10-24T10:00:01.851Z,17.33
2022-10-24T10:05:02.145Z,17.49
2022-10-24T10:10:02.299Z,17.6
2022-10-24T10:15:01.838Z,17.76
2022-10-24T10:20:01.631Z,18.08
2022-10-24T10:25:01.353Z,18.39
2022-10-24T10:30:02.025Z,18.24
2022-10-24T10:35:02.073Z,18.37
2022-10-24T10:40:01.946Z,18.28
2022-10-24T10:45:01.979Z,18.42
2022-10-24T10:50:02.153Z,18.41
2022-10-24T10:55:02.037Z,18.32
2022-10-24T11:00:01.764Z,18.32
2022-10-24T11:05:01.946Z,18.2
2022-10-24T11:10:01.724Z,18.23
2022-10-24T11:15:02.015Z,18.09
2022-10-24T11:20:02.208Z,18.02
2022-10-24T11:25:01.769Z,17.88
2022-10-24T11:30:02.167Z,18
2022-10-24T11:35:01.380Z,17.94
2022-10-24T11:40:01.749Z,17.88
2022-10-24T11:45:01.345Z,17.93
2022-10-24T11:50:02.078Z,18.08
2022-10-24T11:55:01.474Z,18.06
2022-10-24T12:00:02.077Z,18.07
2022-10-24T12:05:01.284Z,18.04
2022-10-24T12:10:01.952Z,18.06
2022-10-24T12:15:01.530Z,18.04
2022-10-24T12:20:01.471Z,18.05
2022-10-24T12:25:02.142Z,18.07
2022-10-24T12:30:01.606Z,18
2022-10-24T12:35:29.837Z,17.95
2022-10-24T12:40:01.892Z,18.06
2022-10-24T12:45:01.900Z,18.26
2022-10-24T12:50:01.612Z,18.26
2022-10-24T12:55:01.594Z,18.29
2022-10-24T13:00:01.822Z,18.18
2022-10-24T13:05:02.127Z,18.08
2022-10-24T13:10:01.381Z,17.92
2022-10-24T13:15:01.517Z,17.75
2022-10-24T13:20:01.692Z,17.67
2022-10-24T13:25:01.834Z,17.59
2022-10-24T13:30:02.169Z,17.64
2022-10-24T13:35:02.099Z,17.66
2022-10-24T13:40:01.834Z,17.55
2022-10-24T13:45:01.445Z,17.63
2022-10-24T13:50:01.568Z,17.68
2022-10-24T13:55:02.083Z,17.6
2022-10-24T14:00:01.881Z,17.52
2022-10-24T14:05:01.497Z,17.41
2022-10-24T14:10:02.193Z,17.35
2022-10-24T14:15:01.931Z,17.34
2022-10-24T14:20:01.307Z,17.36
2022-10-24T14:25:01.680Z,17.2
2022-10-24T14:30:01.976Z,17.1
2022-10-24T14:35:06.951Z,17.06
2022-10-24T14:40:01.384Z,17.08
2022-10-24T14:45:01.369Z,17.06
2022-10-24T14:50:02.047Z,16.98
2022-10-24T14:55:01.342Z,16.85
2022-10-24T15:00:01.733Z,16.8
2022-10-24T15:05:02.146Z,16.75
2022-10-24T15:10:01.850Z,16.63
2022-10-24T15:15:01.361Z,16.51
2022-10-24T15:20:01.689Z,16.52
2022-10-24T15:25:01.753Z,16.55
2022-10-24T15:30:02.149Z,16.51
2022-10-24T15:35:01.417Z,16.66
2022-10-24T15:40:01.787Z,16.81
2022-10-24T15:45:01.774Z,16.78
2022-10-24T15:50:01.649Z,16.76
2022-10-24T15:55:01.977Z,16.79
2022-10-24T16:00:01.683Z,16.77
2022-10-24T16:05:01.909Z,16.7
2022-10-24T16:10:01.573Z,16.54
2022-10-24T16:15:01.526Z,16.39
2022-10-24T16:20:01.617Z,16.32
2022-10-24T16:25:02.419Z,16.29
2022-10-24T16:30:01.658Z,16.19
2022-10-24T16:35:01.971Z,16.2
2022-10-24T16:40:01.758Z,16.19
2022-10-24T16:45:01.617Z,16.15
2022-10-24T16:50:01.490Z,16.2
2022-10-24T16:55:02.004Z,16.14
2022-10-24T17:00:01.570Z,16.1
2022-10-24T17:05:01.878Z,16.02
2022-10-24T17:10:01.575Z,15.98
2022-10-24T17:15:01.330Z,15.93
2022-10-24T17:20:01.606Z,15.86
2022-10-24T17:25:01.920Z,15.85
2022-10-24T17:30:01.681Z,15.84
2022-10-24T17:35:01.658Z,15.84
2022-10-24T17:40:02.029Z,15.84
2022-10-24T17:45:01.428Z,15.81
2022-10-24T17:50:01.289Z,15.88
2022-10-24T17:55:01.849Z,15.89
2022-10-24T18:00:02.083Z,15.92
2022-10-24T18:05:01.796Z,15.86
2022-10-24T18:10:01.875Z,15.68
2022-10-24T18:15:01.487Z,15.52
2022-10-24T18:20:01.705Z,15.43
2022-10-24T18:25:01.859Z,15.32
2022-10-24T18:30:01.310Z,15.27
2022-10-24T18:35:01.253Z,15.18
2022-10-24T18:40:01.863Z,15.01
2022-10-24T18:45:01.968Z,14.82
2022-10-24T18:50:01.813Z,14.68
2022-10-24T18:55:01.742Z,14.58
2022-10-24T19:00:01.882Z,14.52
2022-10-24T19:05:02.071Z,14.5
2022-10-24T19:10:02.015Z,14.4
2022-10-24T19:15:02.040Z,14.4
2022-10-24T19:20:02.143Z,14.05
2022-10-24T19:25:01.780Z,14.04
2022-10-24T19:30:01.759Z,14.03
2022-10-24T19:35:01.346Z,13.9
2022-10-24T19:40:01.511Z,13.99
2022-10-24T19:45:02.051Z,13.86
2022-10-24T19:50:01.335Z,13.76
2022-10-24T19:55:01.551Z,13.66
2022-10-24T20:00:02.134Z,13.56
2022-10-24T20:05:01.289Z,13.49
2022-10-24T20:10:02.011Z,13.4
2022-10-24T20:15:01.343Z,13.34
2022-10-24T20:20:01.970Z,13.29
2022-10-24T20:25:01.780Z,13.2
2022-10-24T20:30:01.775Z,13.1
2022-10-24T20:35:01.683Z,13.1
2022-10-24T20:40:01.711Z,13.03
2022-10-24T20:45:02.212Z,12.92
2022-10-24T20:50:02.212Z,12.87
2022-10-24T20:55:02.908Z,12.81
2022-10-24T21:00:01.958Z,12.76
2022-10-24T21:05:01.789Z,12.72
2022-10-24T21:10:01.449Z,12.76
2022-10-24T21:15:01.337Z,12.72
2022-10-24T21:20:01.944Z,12.7
2022-10-24T21:25:01.266Z,12.71
2022-10-24T21:30:02.094Z,12.66
2022-10-24T21:35:01.585Z,12.62
2022-10-24T21:40:02.144Z,12.61
2022-10-24T21:45:01.789Z,12.51
2022-10-24T21:50:02.001Z,12.43
2022-10-24T21:55:01.914Z,12.36
2022-10-24T22:00:01.310Z,12.38
2022-10-24T22:05:01.710Z,12.4
2022-10-24T22:10:01.719Z,12.38
2022-10-24T22:15:01.236Z,12.51
2022-10-24T22:20:01.434Z,12.51
2022-10-24T22:25:01.982Z,12.46
2022-10-24T22:30:01.271Z,12.34
2022-10-24T22:35:02.170Z,12.29
2022-10-24T22:40:01.664Z,12.27
2022-10-24T22:45:01.864Z,12.28
2022-10-24T22:50:01.472Z,12.29
2022-10-24T22:55:03.847Z,12.27
2022-10-24T23:00:01.471Z,12.26
2022-10-24T23:05:01.346Z,12.23
2022-10-24T23:10:01.900Z,12.23
2022-10-24T23:15:01.261Z,12.41
2022-10-24T23:20:01.451Z,12.49
2022-10-24T23:25:01.704Z,12.58
2022-10-24T23:30:01.464Z,12.58
2022-10-24T23:35:02.445Z,12.57
2022-10-24T23:40:01.491Z,12.53
2022-10-24T23:45:03.923Z,12.57
2022-10-24T23:50:01.939Z,12.53
2022-10-24T23:55:02.223Z,12.47
